createdAt,value
2022-10-15T00:00:12.145Z,19.98
2022-10-15T00:02:39.336Z,22.02
2022-10-15T00:05:06.622Z,24.35
2022-10-15T00:07:33.791Z,23.50
2022-10-15T00:10:01.054Z,17.95
2022-10-15T00:12:28.256Z,18.45
2022-10-15T00:14:55.555Z,23.17
2022-10-15T00:17:22.926Z,22.60
2022-10-15T00:19:50.332Z,24.95
2022-10-15T00:22:17.566Z,31.75
2022-10-15T00:24:44.768Z,22.25
2022-10-15T00:27:11.968Z,25.35
2022-10-15T00:29:39.164Z,24.52
2022-10-15T00:32:06.490Z,25.25
2022-10-15T00:34:33.785Z,29.67
2022-10-15T00:37:01.072Z,32.97
2022-10-15T00:39:28.329Z,24.40
2022-10-15T00:41:55.546Z,26.13
2022-10-15T00:44:22.733Z,25.35
2022-10-15T00:47:13.120Z,25.05
2022-10-15T00:49:41.571Z,23.92
2022-10-15T00:52:15.077Z,20.92
2022-10-15T00:54:44.109Z,17.58
2022-10-15T00:57:11.977Z,18.63
2022-10-15T00:59:42.033Z,14.63
2022-10-15T01:02:09.698Z,16.45
2022-10-15T01:04:37.389Z,14.05
2022-10-15T01:07:04.661Z,9.85
2022-10-15T01:09:31.919Z,11.85
2022-10-15T01:11:59.220Z,8.35
2022-10-15T01:14:29.502Z,13.35
2022-10-15T01:16:59.537Z,8.77
2022-10-15T01:19:26.741Z,10.90
2022-10-15T01:21:59.490Z,6.53
2022-10-15T01:27:10.378Z,5.68
2022-10-15T01:29:56.423Z,7.60
2022-10-15T01:32:26.437Z,8.93
2022-10-15T01:34:56.664Z,6.28
2022-10-15T01:37:38.129Z,5.70
2022-10-15T01:40:18.529Z,5.20
2022-10-15T01:42:59.567Z,5.25
2022-10-15T01:45:30.228Z,5.65
2022-10-15T01:47:59.677Z,3.90
2022-10-15T01:50:28.586Z,4.05
2022-10-15T01:52:56.554Z,1.88
2022-10-15T01:55:24.930Z,3.20
2022-10-15T01:57:53.063Z,1.77
2022-10-15T02:00:20.318Z,2.92
2022-10-15T02:02:47.779Z,8.20
2022-10-15T02:05:19.049Z,5.15
2022-10-15T02:07:52.405Z,1.75
2022-10-15T02:10:28.016Z,2.85
2022-10-15T02:13:14.253Z,3.20
2022-10-15T02:15:53.564Z,2.53
2022-10-15T02:18:32.775Z,4.72
2022-10-15T02:21:07.305Z,3.60
2022-10-15T02:23:34.533Z,1.42
2022-10-15T02:26:02.400Z,1.55
2022-10-15T02:28:30.796Z,3.92
2022-10-15T02:30:58.868Z,6.60
2022-10-15T02:33:27.122Z,3.40
2022-10-15T02:35:54.882Z,1.30
2022-10-15T02:38:23.741Z,2.95
2022-10-15T02:40:51.390Z,1.33
2022-10-15T02:43:20.388Z,3.30
2022-10-15T02:45:48.032Z,4.90
2022-10-15T02:48:15.289Z,3.03
2022-10-15T02:50:42.478Z,7.20
2022-10-15T02:53:09.709Z,1.65
2022-10-15T02:55:37.000Z,4.82
2022-10-15T02:58:04.270Z,4.57
2022-10-15T03:00:31.659Z,4.13
2022-10-15T03:02:58.911Z,2.28
2022-10-15T03:07:53.735Z,4.88
2022-10-15T03:10:21.151Z,2.10
2022-10-15T03:12:48.421Z,4.15
2022-10-15T03:15:15.666Z,4.80
2022-10-15T03:17:42.935Z,3.15
2022-10-15T03:20:10.221Z,6.50
2022-10-15T03:22:37.449Z,2.45
2022-10-15T03:25:04.985Z,1.80
2022-10-15T03:27:32.164Z,3.88
2022-10-15T03:29:59.365Z,3.17
2022-10-15T03:32:26.597Z,4.13
2022-10-15T03:34:53.951Z,3.75
2022-10-15T03:37:21.341Z,6.63
2022-10-15T03:39:48.991Z,2.42
2022-10-15T03:42:16.200Z,1.98
2022-10-15T03:44:43.445Z,5.85
2022-10-15T03:47:10.613Z,6.95
2022-10-15T03:49:37.853Z,2.72
2022-10-15T03:52:05.042Z,3.08
2022-10-15T03:54:32.265Z,3.22
2022-10-15T03:56:59.513Z,3.58
2022-10-15T03:59:26.879Z,4.25
2022-10-15T04:01:54.111Z,2.97
2022-10-15T04:04:21.312Z,4.63
2022-10-15T04:06:48.502Z,6.45
2022-10-15T04:09:15.762Z,3.20
2022-10-15T04:11:42.921Z,8.85
2022-10-15T04:14:10.124Z,8.25
2022-10-15T04:16:37.382Z,6.47
2022-10-15T04:19:07.382Z,8.00
2022-10-15T04:21:37.470Z,5.70
2022-10-15T04:24:04.874Z,4.95
2022-10-15T04:26:32.098Z,4.60
2022-10-15T04:28:59.392Z,6.75
2022-10-15T04:31:26.682Z,6.95
2022-10-15T04:33:53.940Z,4.40
2022-10-15T04:36:21.173Z,5.47
2022-10-15T04:38:48.415Z,5.65
2022-10-15T04:41:15.652Z,8.13
2022-10-15T04:43:42.912Z,4.90
2022-10-15T04:46:10.430Z,7.82
2022-10-15T04:48:42.051Z,4.82
2022-10-15T04:51:12.797Z,1.48
2022-10-15T04:53:40.314Z,1.45
2022-10-15T04:56:09.087Z,1.88
2022-10-15T04:58:36.993Z,1.55
2022-10-15T05:01:05.653Z,0.30
2022-10-15T05:06:07.039Z,1.50
2022-10-15T05:08:36.709Z,0.85
2022-10-15T05:11:05.654Z,0.65
2022-10-15T05:13:33.398Z,3.28
2022-10-15T05:16:17.463Z,0.82
2022-10-15T05:18:46.083Z,2.50
2022-10-15T05:21:13.577Z,1.55
2022-10-15T05:23:41.156Z,0.70
2022-10-15T05:26:09.621Z,0.95
2022-10-15T05:28:36.959Z,0.65
2022-10-15T05:31:24.470Z,3.10
2022-10-15T05:33:52.602Z,0.32
2022-10-15T05:36:21.188Z,0.40
2022-10-15T05:38:49.574Z,0.30
2022-10-15T05:41:16.859Z,0.10
2022-10-15T05:43:44.304Z,1.35
2022-10-15T05:46:11.518Z,0.95
2022-10-15T05:48:38.708Z,0.65
2022-10-15T05:51:07.520Z,0.30
2022-10-15T05:53:35.126Z,1.30
2022-10-15T05:56:02.341Z,0.70
2022-10-15T05:58:33.321Z,3.30
2022-10-15T06:01:04.615Z,2.55
2022-10-15T06:03:31.823Z,0.55
2022-10-15T06:05:59.067Z,1.95
2022-10-15T06:08:26.293Z,3.10
2022-10-15T06:10:53.533Z,1.60
2022-10-15T06:13:20.804Z,1.60
2022-10-15T06:15:48.088Z,3.80
2022-10-15T06:18:16.385Z,1.45
2022-10-15T06:20:44.046Z,3.88
2022-10-15T06:23:12.054Z,1.10
2022-10-15T06:25:39.311Z,1.20
2022-10-15T06:28:06.971Z,1.73
2022-10-15T06:30:33.859Z,2.10
2022-10-15T06:33:00.939Z,2.28
2022-10-15T06:35:30.485Z,2.10
2022-10-15T06:38:03.068Z,2.20
2022-10-15T06:40:30.749Z,1.65
2022-10-15T06:43:09.004Z,1.73
2022-10-15T06:45:37.647Z,1.95
2022-10-15T06:48:05.615Z,1.30
2022-10-15T06:50:33.287Z,2.30
2022-10-15T06:53:00.615Z,1.35
2022-10-15T06:55:28.999Z,3.08
2022-10-15T06:57:56.805Z,5.88
2022-10-15T07:00:24.492Z,1.00
2022-10-15T07:02:51.894Z,4.05
2022-10-15T07:05:19.437Z,1.60
2022-10-15T07:07:56.631Z,3.38
2022-10-15T07:10:24.495Z,6.88
2022-10-15T07:12:51.709Z,7.97
2022-10-15T07:15:19.617Z,4.97
2022-10-15T07:17:50.693Z,10.82
2022-10-15T07:20:21.713Z,2.80
2022-10-15T07:22:52.166Z,6.13
2022-10-15T07:25:19.821Z,5.30
2022-10-15T07:27:47.260Z,7.97
2022-10-15T07:30:14.423Z,8.25
2022-10-15T07:32:43.559Z,7.15
2022-10-15T07:35:12.865Z,4.18
2022-10-15T07:37:40.095Z,3.85
2022-10-15T07:40:07.966Z,4.93
2022-10-15T07:42:35.140Z,10.55
2022-10-15T07:45:02.383Z,11.43
2022-10-15T07:47:29.560Z,6.75
2022-10-15T07:49:56.753Z,5.43
2022-10-15T07:52:24.265Z,3.42
2022-10-15T07:54:51.717Z,3.78
2022-10-15T07:57:18.885Z,6.13
2022-10-15T07:59:46.040Z,6.20
2022-10-15T08:02:21.003Z,5.18
2022-10-15T08:04:48.497Z,9.95
2022-10-15T08:07:15.716Z,4.53
2022-10-15T08:09:42.935Z,4.93
2022-10-15T08:12:10.113Z,7.28
2022-10-15T08:14:37.408Z,6.80
2022-10-15T08:17:05.164Z,4.70
2022-10-15T08:19:32.575Z,11.25
2022-10-15T08:21:59.774Z,5.70
2022-10-15T08:24:26.971Z,6.03
2022-10-15T08:26:54.637Z,8.45
2022-10-15T08:29:21.842Z,5.05
2022-10-15T08:31:49.449Z,5.25
2022-10-15T08:34:16.941Z,10.82
2022-10-15T08:36:44.201Z,5.72
2022-10-15T08:39:11.587Z,5.18
2022-10-15T08:41:41.654Z,3.08
2022-10-15T08:44:16.655Z,4.38
2022-10-15T08:46:46.842Z,1.92
2022-10-15T08:49:26.035Z,3.13
2022-10-15T08:51:55.242Z,3.05
2022-10-15T08:54:22.495Z,4.38
2022-10-15T08:56:50.792Z,8.60
2022-10-15T08:59:36.857Z,3.17
2022-10-15T09:02:19.082Z,2.13
2022-10-15T09:04:58.911Z,4.43
2022-10-15T09:07:36.232Z,5.72
2022-10-15T09:10:12.439Z,5.25
2022-10-15T09:12:45.749Z,2.30
2022-10-15T09:15:18.037Z,5.72
2022-10-15T09:17:47.752Z,7.30
2022-10-15T09:20:19.222Z,6.32
2022-10-15T09:22:52.008Z,6.05
2022-10-15T09:25:20.960Z,6.88
2022-10-15T09:27:49.236Z,8.48
2022-10-15T09:30:35.380Z,3.97
2022-10-15T09:33:21.433Z,10.07
2022-10-15T09:35:52.648Z,4.90
2022-10-15T09:38:49.044Z,2.67
2022-10-15T09:41:16.693Z,3.70
2022-10-15T09:43:46.385Z,5.07
2022-10-15T09:46:13.912Z,6.50
2022-10-15T09:48:44.391Z,3.42
2022-10-15T09:51:23.017Z,1.73
2022-10-15T09:53:50.345Z,10.27
2022-10-15T09:56:19.970Z,6.63
2022-10-15T09:58:54.994Z,6.07
2022-10-15T10:01:23.261Z,7.55
2022-10-15T10:04:13.685Z,4.32
2022-10-15T10:06:45.003Z,9.27
2022-10-15T10:09:17.505Z,2.05
2022-10-15T10:11:49.121Z,6.97
2022-10-15T10:14:22.993Z,11.03
2022-10-15T10:17:09.100Z,6.90
2022-10-15T10:19:36.435Z,3.55
2022-10-15T10:22:12.070Z,7.95
2022-10-15T10:24:39.265Z,8.50
2022-10-15T10:27:16.647Z,4.13
2022-10-15T10:29:48.745Z,7.72
2022-10-15T10:32:23.993Z,4.38
2022-10-15T10:34:52.836Z,7.72
2022-10-15T10:37:20.396Z,3.70
2022-10-15T10:39:52.764Z,3.17
2022-10-15T10:42:20.063Z,6.35
2022-10-15T10:44:47.293Z,3.05
2022-10-15T10:47:14.571Z,4.68
2022-10-15T10:49:43.016Z,7.93
2022-10-15T10:52:30.358Z,9.38
2022-10-15T10:55:16.409Z,8.80
2022-10-15T10:58:00.120Z,5.22
2022-10-15T11:00:27.278Z,4.15
2022-10-15T11:02:54.702Z,2.42
2022-10-15T11:05:29.387Z,4.93
2022-10-15T11:08:35.336Z,8.85
2022-10-15T11:11:21.181Z,6.00
2022-10-15T11:13:56.637Z,5.72
2022-10-15T11:16:23.793Z,6.45
2022-10-15T11:18:50.941Z,4.45
2022-10-15T11:21:18.615Z,9.80
2022-10-15T11:23:48.786Z,5.70
2022-10-15T11:26:15.935Z,6.57
2022-10-15T11:28:59.599Z,7.88
2022-10-15T11:31:37.237Z,7.55
2022-10-15T11:34:26.616Z,6.75
2022-10-15T11:37:08.779Z,6.88
2022-10-15T11:39:47.853Z,8.82
2022-10-15T11:42:20.800Z,2.28
2022-10-15T11:45:00.310Z,7.90
2022-10-15T11:47:27.484Z,7.70
2022-10-15T11:49:54.598Z,4.85
2022-10-15T11:52:24.732Z,2.13
2022-10-15T11:55:10.771Z,6.13
2022-10-15T11:57:40.229Z,8.70
2022-10-15T12:00:15.137Z,8.80
2022-10-15T12:02:42.348Z,5.53
2022-10-15T12:05:12.204Z,6.72
2022-10-15T12:07:44.437Z,3.90
2022-10-15T12:10:21.603Z,11.10
2022-10-15T12:12:51.956Z,6.50
2022-10-15T12:15:28.620Z,9.75
2022-10-15T12:17:59.161Z,5.80
2022-10-15T12:20:27.055Z,5.55
2022-10-15T12:22:59.097Z,7.57
2022-10-15T12:25:35.198Z,12.32
2022-10-15T12:28:17.753Z,7.03
2022-10-15T12:30:54.340Z,8.90
2022-10-15T12:33:26.598Z,6.13
2022-10-15T12:35:55.372Z,1.45
2022-10-15T12:38:26.251Z,4.32
2022-10-15T12:41:02.070Z,6.00
2022-10-15T12:43:30.280Z,6.72
2022-10-15T12:45:59.245Z,1.08
2022-10-15T12:48:30.230Z,4.68
2022-10-15T12:51:16.152Z,3.47
2022-10-15T12:53:43.808Z,5.80
2022-10-15T12:56:11.035Z,8.35
2022-10-15T12:58:38.946Z,3.10
2022-10-15T13:01:15.469Z,2.28
2022-10-15T13:03:42.717Z,1.80
2022-10-15T13:06:19.542Z,0.77
2022-10-15T13:08:51.774Z,3.95
2022-10-15T13:11:27.782Z,5.72
2022-10-15T13:13:59.528Z,4.25
2022-10-15T13:16:26.785Z,5.23
2022-10-15T13:18:59.128Z,2.45
2022-10-15T13:21:46.326Z,2.72
2022-10-15T13:24:16.955Z,2.97
2022-10-15T13:26:44.123Z,4.40
2022-10-15T13:29:18.105Z,5.00
2022-10-15T13:31:45.858Z,6.32
2022-10-15T13:34:19.506Z,3.35
2022-10-15T13:36:46.790Z,6.30
2022-10-15T13:39:26.002Z,2.28
2022-10-15T13:41:56.260Z,8.23
2022-10-15T13:44:24.300Z,6.43
2022-10-15T13:46:52.079Z,7.32
2022-10-15T13:49:20.942Z,8.85
2022-10-15T13:51:53.745Z,15.07
2022-10-15T13:54:23.593Z,8.45
2022-10-15T13:56:55.837Z,4.68
2022-10-15T13:59:23.236Z,10.40
2022-10-15T14:02:00.663Z,8.15
2022-10-15T14:04:32.686Z,15.60
2022-10-15T14:07:21.820Z,8.60
2022-10-15T14:09:49.484Z,4.85
2022-10-15T14:12:16.676Z,9.80
2022-10-15T14:14:48.215Z,9.93
2022-10-15T14:17:18.451Z,5.85
2022-10-15T14:20:08.247Z,13.05
2022-10-15T14:22:41.941Z,11.35
2022-10-15T14:27:46.172Z,13.38
2022-10-15T14:30:23.153Z,8.95
2022-10-15T14:32:54.744Z,14.75
2022-10-15T14:35:38.117Z,4.53
2022-10-15T14:38:06.760Z,12.43
2022-10-15T14:40:33.914Z,12.90
2022-10-15T14:43:17.751Z,16.75
2022-10-15T14:45:54.174Z,11.95
2022-10-15T14:48:24.338Z,7.82
2022-10-15T14:50:51.567Z,16.30
2022-10-15T14:53:20.610Z,9.77
2022-10-15T14:55:52.422Z,13.70
2022-10-15T14:58:22.025Z,13.85
2022-10-15T15:00:55.061Z,10.57
2022-10-15T15:03:26.953Z,9.30
2022-10-15T15:05:55.388Z,13.27
2022-10-15T15:08:23.257Z,18.30
2022-10-15T15:10:51.426Z,11.27
2022-10-15T15:13:22.585Z,13.32
2022-10-15T15:15:49.807Z,9.82
2022-10-15T15:18:16.996Z,16.25
2022-10-15T15:20:46.103Z,16.02
2022-10-15T15:23:15.756Z,11.80
2022-10-15T15:25:42.994Z,15.35
2022-10-15T15:28:13.416Z,12.30
2022-10-15T15:30:41.587Z,11.70
2022-10-15T15:33:12.364Z,9.90
2022-10-15T15:35:51.111Z,13.23
2022-10-15T15:38:19.169Z,7.88
2022-10-15T15:40:46.473Z,11.00
2022-10-15T15:43:14.543Z,17.70
2022-10-15T15:45:42.143Z,17.17
2022-10-15T15:48:09.289Z,6.57
2022-10-15T15:50:37.162Z,7.30
2022-10-15T15:53:04.592Z,17.45
2022-10-15T15:55:31.766Z,13.50
2022-10-15T15:57:59.097Z,9.38
2022-10-15T16:00:26.306Z,14.88
2022-10-15T16:02:55.591Z,9.75
2022-10-15T16:05:25.146Z,17.65
2022-10-15T16:07:52.337Z,12.90
2022-10-15T16:10:19.574Z,12.35
2022-10-15T16:12:46.748Z,13.85
2022-10-15T16:15:15.007Z,17.33
2022-10-15T16:17:43.683Z,14.30
2022-10-15T16:20:11.399Z,12.55
2022-10-15T16:22:38.757Z,19.10
2022-10-15T16:25:06.201Z,24.65
2022-10-15T16:27:34.561Z,5.97
2022-10-15T16:30:02.274Z,10.93
2022-10-15T16:32:29.429Z,13.45
2022-10-15T16:34:56.640Z,12.00
2022-10-15T16:37:24.093Z,15.80
2022-10-15T16:39:51.486Z,17.80
2022-10-15T16:44:52.593Z,11.00
2022-10-15T16:47:21.397Z,13.95
2022-10-15T16:49:48.752Z,15.85
2022-10-15T16:52:16.204Z,16.38
2022-10-15T16:54:43.385Z,13.20
2022-10-15T16:57:10.517Z,10.93
2022-10-15T16:59:37.702Z,13.27
2022-10-15T17:02:04.995Z,11.75
2022-10-15T17:04:32.269Z,15.35
2022-10-15T17:06:59.521Z,16.52
2022-10-15T17:09:26.754Z,15.93
2022-10-15T17:11:54.173Z,20.42
2022-10-15T17:14:21.367Z,9.90
2022-10-15T17:16:50.432Z,7.30
2022-10-15T17:19:23.432Z,7.40
2022-10-15T17:21:51.122Z,18.00
2022-10-15T17:24:19.015Z,11.65
2022-10-15T17:26:46.841Z,15.00
2022-10-15T17:29:22.881Z,8.38
2022-10-15T17:31:50.581Z,11.98
2022-10-15T17:34:17.842Z,15.73
2022-10-15T17:36:47.230Z,10.60
2022-10-15T17:39:15.784Z,18.67
2022-10-15T17:41:42.954Z,9.18
2022-10-15T17:44:11.632Z,14.40
2022-10-15T17:46:39.589Z,12.25
2022-10-15T17:49:09.501Z,9.65
2022-10-15T17:51:36.967Z,10.70
2022-10-15T17:54:04.570Z,11.07
2022-10-15T17:56:33.109Z,13.10
2022-10-15T17:59:00.970Z,14.48
2022-10-15T18:01:56.075Z,9.77
2022-10-15T18:04:19.869Z,12.30
2022-10-15T18:06:47.062Z,12.48
2022-10-15T18:09:14.207Z,13.27
2022-10-15T18:11:41.533Z,7.78
2022-10-15T18:14:09.014Z,6.97
2022-10-15T18:16:36.335Z,10.32
2022-10-15T18:19:03.779Z,8.52
2022-10-15T18:21:31.015Z,11.38
2022-10-15T18:24:00.469Z,6.88
2022-10-15T18:26:28.043Z,11.75
2022-10-15T18:28:55.629Z,11.48
2022-10-15T18:31:25.109Z,16.08
2022-10-15T18:33:53.536Z,8.77
2022-10-15T18:36:24.996Z,12.35
2022-10-15T18:38:52.278Z,13.48
2022-10-15T18:41:23.806Z,7.50
2022-10-15T18:43:54.917Z,8.55
2022-10-15T18:46:22.927Z,20.42
2022-10-15T18:48:50.918Z,8.35
2022-10-15T18:51:18.304Z,14.75
2022-10-15T18:53:45.591Z,10.35
2022-10-15T18:56:13.944Z,6.20
2022-10-15T18:58:45.534Z,12.05
2022-10-15T19:01:32.705Z,16.30
2022-10-15T19:04:10.069Z,11.50
2022-10-15T19:06:38.658Z,22.65
2022-10-15T19:09:07.251Z,25.55
2022-10-15T19:11:34.882Z,12.80
2022-10-15T19:14:02.523Z,22.73
2022-10-15T19:16:30.020Z,16.15
2022-10-15T19:18:58.283Z,11.30
2022-10-15T19:21:25.520Z,11.52
2022-10-15T19:23:53.062Z,12.82
2022-10-15T19:26:20.551Z,16.38
2022-10-15T19:28:48.036Z,20.23
2022-10-15T19:31:26.192Z,17.40
2022-10-15T19:33:54.305Z,12.73
2022-10-15T19:36:25.884Z,10.25
2022-10-15T19:38:53.390Z,15.73
2022-10-15T19:41:20.728Z,15.27
2022-10-15T19:43:48.293Z,13.90
2022-10-15T19:46:15.866Z,18.38
2022-10-15T19:48:43.053Z,15.43
2022-10-15T19:51:10.309Z,20.55
2022-10-15T19:53:37.536Z,13.40
2022-10-15T19:56:06.148Z,19.23
2022-10-15T19:58:33.580Z,12.98
2022-10-15T20:01:01.091Z,16.67
2022-10-15T20:03:29.528Z,12.85
2022-10-15T20:05:57.704Z,17.00
2022-10-15T20:08:24.956Z,18.05
2022-10-15T20:10:52.484Z,15.45
2022-10-15T20:13:21.015Z,10.50
2022-10-15T20:15:49.653Z,13.05
2022-10-15T20:18:16.923Z,9.32
2022-10-15T20:20:45.547Z,18.02
2022-10-15T20:23:14.567Z,13.75
2022-10-15T20:25:42.861Z,13.95
2022-10-15T20:28:14.211Z,10.50
2022-10-15T20:30:42.088Z,10.55
2022-10-15T20:33:09.993Z,17.70
2022-10-15T20:35:37.571Z,25.80
2022-10-15T20:38:05.232Z,12.15
2022-10-15T20:40:32.790Z,24.30
2022-10-15T20:43:00.112Z,21.95
2022-10-15T20:45:31.461Z,16.20
2022-10-15T20:47:58.795Z,17.58
2022-10-15T20:50:28.263Z,13.52
2022-10-15T20:52:56.583Z,17.92
2022-10-15T20:55:24.036Z,18.02
2022-10-15T20:57:51.450Z,11.43
2022-10-15T21:00:18.970Z,13.32
2022-10-15T21:02:46.141Z,18.77
2022-10-15T21:05:13.364Z,11.90
2022-10-15T21:07:40.552Z,16.13
2022-10-15T21:10:07.867Z,16.38
2022-10-15T21:12:35.160Z,11.65
2022-10-15T21:15:02.325Z,14.23
2022-10-15T21:17:29.568Z,9.32
2022-10-15T21:19:56.695Z,14.20
2022-10-15T21:22:23.831Z,16.77
2022-10-15T21:24:51.096Z,8.48
2022-10-15T21:27:18.339Z,19.30
2022-10-15T21:29:46.200Z,10.27
2022-10-15T21:32:13.388Z,14.20
2022-10-15T21:37:12.723Z,21.90
2022-10-15T21:39:39.891Z,21.92
2022-10-15T21:42:07.114Z,9.85
2022-10-15T21:44:34.274Z,8.88
2022-10-15T21:47:01.442Z,15.32
2022-10-15T21:49:28.553Z,15.40
2022-10-15T21:51:55.728Z,12.13
2022-10-15T21:54:22.886Z,17.65
2022-10-15T21:56:50.017Z,11.18
2022-10-15T21:59:17.240Z,22.70
2022-10-15T22:01:45.653Z,22.35
2022-10-15T22:04:12.857Z,14.15
2022-10-15T22:06:40.613Z,14.38
2022-10-15T22:09:08.262Z,18.42
2022-10-15T22:11:37.017Z,12.23
2022-10-15T22:14:05.737Z,16.85
2022-10-15T22:16:34.464Z,16.52
2022-10-15T22:19:01.891Z,17.23
2022-10-15T22:21:30.327Z,13.05
2022-10-15T22:23:59.114Z,16.15
2022-10-15T22:26:27.491Z,11.80
2022-10-15T22:28:55.725Z,20.25
2022-10-15T22:31:22.924Z,20.50
2022-10-15T22:33:50.456Z,18.55
2022-10-15T22:36:19.163Z,22.05
2022-10-15T22:38:49.260Z,12.88
2022-10-15T22:41:16.911Z,24.65
2022-10-15T22:43:44.157Z,12.82
2022-10-15T22:46:11.654Z,21.10
2022-10-15T22:48:40.003Z,22.65
2022-10-15T22:51:08.036Z,21.27
2022-10-15T22:53:35.623Z,26.70
2022-10-15T22:56:07.079Z,24.88
2022-10-15T22:58:35.022Z,17.20
2022-10-15T23:01:13.033Z,24.60
2022-10-15T23:03:41.173Z,17.80
2022-10-15T23:06:08.796Z,19.08
2022-10-15T23:08:36.253Z,27.95
2022-10-15T23:11:12.674Z,20.77
2022-10-15T23:13:40.877Z,22.42
2022-10-15T23:16:08.165Z,27.08
2022-10-15T23:18:35.345Z,14.75
2022-10-15T23:21:12.354Z,15.43
2022-10-15T23:23:39.558Z,13.85
2022-10-15T23:26:06.921Z,16.92
2022-10-15T23:28:34.101Z,19.48
2022-10-15T23:31:01.363Z,10.88
2022-10-15T23:33:28.873Z,18.52
2022-10-15T23:36:00.685Z,13.38
2022-10-15T23:38:28.224Z,14.30
2022-10-15T23:41:02.547Z,22.80
2022-10-15T23:43:30.179Z,16.88
2022-10-15T23:45:57.400Z,12.45
2022-10-15T23:48:24.580Z,19.88
2022-10-15T23:50:52.345Z,24.58
2022-10-15T23:53:19.788Z,15.98
2022-10-15T23:55:47.020Z,14.52
2022-10-15T23:58:14.387Z,17.20
